Decoded Metar for BKPR (PRISHTINA in SERBIA) (IATA:N/A) | Meteo·Mobile Aviation Weather
aviador You're here:

BKPR Decoded Metar

PRISHTINA in SERBIA
Report Time2018-11-16 07:00:00
UTC Time2018-11-16 07:12:35
Flight Rules vfr VFR
WindCalm
Visibility9999 m
Phenomena:Light Rain
Clouds:Few 030 Hf
Broken 050 Hf
Expected CloudBase > 1,200 ft AGL from Temp-Dew spread
Ceiling5,000 ft
Temp02°C (ISA -9)
Dew Point-1°C (81% RH)
AAT-0.1°C
QNH1025 hPa
Density Alt449 ft
Elevation1,890 ft
Report Wrong Elevation
Raw Report
BKPR 160700Z 00000KT 9999 -RA FEW030 BKN050 02/M01 Q1025 NOSIG RMK
17010095=

Extra information for BKPR:More info

Metar Taf Metar & Taf Last 4 Metars F.Rules Stats Wind Profile Meteogram Temp Stats Airport Information Weather charts Add Link Nearby VenuesMetar ALERT Operation Metar Decoded Social comments